sensor_id;sensor_type;location;lat;lon;timestamp;pressure;altitude;pressure_sealevel;temperature;humidity
19890;BME280;10107;51.198;6.824;2022-11-23T00:02:34;-21522.34;;;7.71;100.00
19890;BME280;10107;51.198;6.824;2022-11-23T00:06:35;-21522.22;;;7.70;100.00
19890;BME280;10107;51.198;6.824;2022-11-23T00:10:37;-21522.09;;;7.70;100.00
19890;BME280;10107;51.198;6.824;2022-11-23T00:14:40;-21522.63;;;7.72;100.00
19890;BME280;10107;51.198;6.824;2022-11-23T00:18:42;-21523.28;;;7.74;100.00
19890;BME280;10107;51.198;6.824;2022-11-23T00:22:43;-21523.94;;;7.77;100.00
19890;BME280;10107;51.198;6.824;2022-11-23T00:26:45;-21523.81;;;7.77;100.00
19890;BME280;10107;51.198;6.824;2022-11-23T00:30:50;-21523.69;;;7.76;100.00
19890;BME280;10107;51.198;6.824;2022-11-23T00:34:52;-21524.34;;;7.79;100.00
19890;BME280;10107;51.198;6.824;2022-11-23T00:38:54;-21524.09;;;7.78;100.00
19890;BME280;10107;51.198;6.824;2022-11-23T00:42:56;-21524.88;;;7.81;100.00
19890;BME280;10107;51.198;6.824;2022-11-23T00:46:59;-21526.22;;;7.86;100.00
19890;BME280;10107;51.198;6.824;2022-11-23T00:51:01;-21527.81;;;7.92;100.00
19890;BME280;10107;51.198;6.824;2022-11-23T00:55:03;-21528.06;;;7.93;100.00
19890;BME280;10107;51.198;6.824;2022-11-23T00:59:05;-21529.13;;;7.97;100.00
19890;BME280;10107;51.198;6.824;2022-11-23T01:03:08;-21529.41;;;7.98;100.00
19890;BME280;10107;51.198;6.824;2022-11-23T01:07:09;-21528.88;;;7.96;100.00
19890;BME280;10107;51.198;6.824;2022-11-23T01:11:11;-21528.75;;;7.96;100.00
19890;BME280;10107;51.198;6.824;2022-11-23T01:15:12;-21528.88;;;7.96;100.00
19890;BME280;10107;51.198;6.824;2022-11-23T01:19:16;-21528.06;;;7.93;100.00
19890;BME280;10107;51.198;6.824;2022-11-23T01:23:21;-21527.94;;;7.92;100.00
19890;BME280;10107;51.198;6.824;2022-11-23T01:27:23;-21527.94;;;7.92;100.00
19890;BME280;10107;51.198;6.824;2022-11-23T01:31:25;-21527.53;;;7.91;100.00
19890;BME280;10107;51.198;6.824;2022-11-23T01:35:28;-21527.69;;;7.91;100.00
19890;BME280;10107;51.198;6.824;2022-11-23T01:39:29;-21528.06;;;7.93;100.00
19890;BME280;10107;51.198;6.824;2022-11-23T01:43:31;-21528.75;;;7.96;100.00
19890;BME280;10107;51.198;6.824;2022-11-23T01:47:33;-21528.59;;;7.95;100.00
19890;BME280;10107;51.198;6.824;2022-11-23T01:51:37;-21528.59;;;7.95;100.00
19890;BME280;10107;51.198;6.824;2022-11-23T01:55:40;-21528.88;;;7.96;100.00
19890;BME280;10107;51.198;6.824;2022-11-23T01:59:44;-21529.00;;;7.97;100.00
19890;BME280;10107;51.198;6.824;2022-11-23T02:03:47;-21529.53;;;7.99;100.00
19890;BME280;10107;51.198;6.824;2022-11-23T02:07:49;-21529.00;;;7.97;100.00
19890;BME280;10107;51.198;6.824;2022-11-23T02:11:51;-21528.75;;;7.96;100.00
19890;BME280;10107;51.198;6.824;2022-11-23T02:15:53;-21529.00;;;7.97;100.00
19890;BME280;10107;51.198;6.824;2022-11-23T02:19:56;-21529.41;;;7.98;100.00
19890;BME280;10107;51.198;6.824;2022-11-23T02:24:06;-21530.72;;;8.03;100.00
19890;BME280;10107;51.198;6.824;2022-11-23T02:28:12;-21530.47;;;8.02;100.00
19890;BME280;10107;51.198;6.824;2022-11-23T02:32:16;-21530.19;;;8.01;100.00
19890;BME280;10107;51.198;6.824;2022-11-23T02:36:23;-21530.06;;;8.01;100.00
19890;BME280;10107;51.198;6.824;2022-11-23T02:40:29;-21529.66;;;7.99;100.00
19890;BME280;10107;51.198;6.824;2022-11-23T02:44:35;-21529.81;;;8.00;100.00
19890;BME280;10107;51.198;6.824;2022-11-23T02:48:40;-21529.94;;;8.00;100.00
19890;BME280;10107;51.198;6.824;2022-11-23T02:52:41;-21529.66;;;7.99;100.00
19890;BME280;10107;51.198;6.824;2022-11-23T02:56:43;-21528.75;;;7.96;100.00
19890;BME280;10107;51.198;6.824;2022-11-23T03:00:46;-21528.22;;;7.93;100.00
19890;BME280;10107;51.198;6.824;2022-11-23T03:04:51;-21527.41;;;7.90;100.00
19890;BME280;10107;51.198;6.824;2022-11-23T03:08:53;-21526.34;;;7.86;100.00
19890;BME280;10107;51.198;6.824;2022-11-23T03:12:55;-21525.69;;;7.84;100.00
19890;BME280;10107;51.198;6.824;2022-11-23T03:16:59;-21524.75;;;7.80;100.00
19890;BME280;10107;51.198;6.824;2022-11-23T03:21:06;-21524.47;;;7.79;100.00
19890;BME280;10107;51.198;6.824;2022-11-23T03:25:11;-21523.69;;;7.76;100.00
19890;BME280;10107;51.198;6.824;2022-11-23T03:29:13;-21523.81;;;7.77;100.00
19890;BME280;10107;51.198;6.824;2022-11-23T03:33:17;-21523.28;;;7.74;100.00
19890;BME280;10107;51.198;6.824;2022-11-23T03:37:19;-21522.63;;;7.72;100.00
19890;BME280;10107;51.198;6.824;2022-11-23T03:41:21;-21522.22;;;7.70;100.00
19890;BME280;10107;51.198;6.824;2022-11-23T03:45:25;-21521.97;;;7.69;100.00
19890;BME280;10107;51.198;6.824;2022-11-23T03:49:29;-21521.81;;;7.69;100.00
19890;BME280;10107;51.198;6.824;2022-11-23T03:53:31;-21521.56;;;7.68;100.00
19890;BME280;10107;51.198;6.824;2022-11-23T03:57:33;-21521.97;;;7.69;100.00
19890;BME280;10107;51.198;6.824;2022-11-23T04:01:36;-21522.50;;;7.71;100.00
19890;BME280;10107;51.198;6.824;2022-11-23T04:05:43;-21522.50;;;7.71;100.00
19890;BME280;10107;51.198;6.824;2022-11-23T04:10:08;-21521.97;;;7.69;100.00
19890;BME280;10107;51.198;6.824;2022-11-23T04:14:33;-21521.16;;;7.66;100.00
19890;BME280;10107;51.198;6.824;2022-11-23T04:18:35;-21520.22;;;7.63;100.00
19890;BME280;10107;51.198;6.824;2022-11-23T04:22:39;-21519.16;;;7.59;100.00
19890;BME280;10107;51.198;6.824;2022-11-23T04:26:41;-21518.75;;;7.57;100.00
19890;BME280;10107;51.198;6.824;2022-11-23T04:30:44;-21518.09;;;7.54;100.00
19890;BME280;10107;51.198;6.824;2022-11-23T04:34:46;-21518.22;;;7.55;100.00
19890;BME280;10107;51.198;6.824;2022-11-23T04:38:49;-21518.09;;;7.54;100.00
19890;BME280;10107;51.198;6.824;2022-11-23T04:42:55;-21518.63;;;7.57;100.00
19890;BME280;10107;51.198;6.824;2022-11-23T04:46:58;-21519.44;;;7.60;100.00
19890;BME280;10107;51.198;6.824;2022-11-23T04:51:00;-21520.09;;;7.62;100.00
19890;BME280;10107;51.198;6.824;2022-11-23T04:55:09;-21521.16;;;7.66;100.00
19890;BME280;10107;51.198;6.824;2022-11-23T04:59:20;-21523.28;;;7.74;100.00
19890;BME280;10107;51.198;6.824;2022-11-23T05:03:22;-21524.63;;;7.80;100.00
19890;BME280;10107;51.198;6.824;2022-11-23T05:07:23;-21526.06;;;7.85;100.00
19890;BME280;10107;51.198;6.824;2022-11-23T05:11:32;-21526.22;;;7.86;100.00
19890;BME280;10107;51.198;6.824;2022-11-23T05:15:35;-21525.41;;;7.83;100.00
19890;BME280;10107;51.198;6.824;2022-11-23T05:19:37;-21523.16;;;7.74;100.00
19890;BME280;10107;51.198;6.824;2022-11-23T05:23:39;-21521.97;;;7.69;100.00
19890;BME280;10107;51.198;6.824;2022-11-23T05:27:43;-21520.09;;;7.62;100.00
19890;BME280;10107;51.198;6.824;2022-11-23T05:31:45;-21518.75;;;7.57;100.00
19890;BME280;10107;51.198;6.824;2022-11-23T05:35:48;-21517.56;;;7.52;100.00
19890;BME280;10107;51.198;6.824;2022-11-23T05:39:52;-21516.38;;;7.48;100.00
19890;BME280;10107;51.198;6.824;2022-11-23T05:43:56;-21515.69;;;7.45;100.00
19890;BME280;10107;51.198;6.824;2022-11-23T05:48:01;-21514.78;;;7.42;100.00
19890;BME280;10107;51.198;6.824;2022-11-23T05:52:23;-21513.56;;;7.37;100.00
19890;BME280;10107;51.198;6.824;2022-11-23T05:56:25;-21513.16;;;7.36;100.00
19890;BME280;10107;51.198;6.824;2022-11-23T06:00:39;-21512.91;;;7.34;100.00
19890;BME280;10107;51.198;6.824;2022-11-23T06:04:42;-21512.78;;;7.34;100.00
19890;BME280;10107;51.198;6.824;2022-11-23T06:08:46;-21513.56;;;7.37;100.00
19890;BME280;10107;51.198;6.824;2022-11-23T06:12:49;-21513.69;;;7.38;100.00
19890;BME280;10107;51.198;6.824;2022-11-23T06:16:54;-21513.44;;;7.37;100.00
19890;BME280;10107;51.198;6.824;2022-11-23T06:21:12;-21513.44;;;7.37;100.00
19890;BME280;10107;51.198;6.824;2022-11-23T06:25:14;-21513.31;;;7.36;100.00
19890;BME280;10107;51.198;6.824;2022-11-23T06:29:22;-21513.56;;;7.37;100.00
19890;BME280;10107;51.198;6.824;2022-11-23T06:33:27;-21514.50;;;7.41;100.00
19890;BME280;10107;51.198;6.824;2022-11-23T06:37:28;-21515.16;;;7.43;100.00
19890;BME280;10107;51.198;6.824;2022-11-23T06:41:30;-21515.84;;;7.46;100.00
19890;BME280;10107;51.198;6.824;2022-11-23T06:45:31;-21516.22;;;7.47;100.00
19890;BME280;10107;51.198;6.824;2022-11-23T06:49:39;-21516.75;;;7.49;100.00
19890;BME280;10107;51.198;6.824;2022-11-23T06:53:49;-21517.16;;;7.51;100.00
19890;BME280;10107;51.198;6.824;2022-11-23T06:57:52;-21519.03;;;7.58;100.00
19890;BME280;10107;51.198;6.824;2022-11-23T07:01:54;-21520.34;;;7.63;100.00
19890;BME280;10107;51.198;6.824;2022-11-23T07:05:57;-21521.16;;;7.66;100.00
19890;BME280;10107;51.198;6.824;2022-11-23T07:10:02;-21521.97;;;7.69;100.00
19890;BME280;10107;51.198;6.824;2022-11-23T07:14:14;-21522.88;;;7.73;100.00
19890;BME280;10107;51.198;6.824;2022-11-23T07:18:19;-21523.28;;;7.74;100.00
19890;BME280;10107;51.198;6.824;2022-11-23T07:22:28;-21524.63;;;7.80;100.00
19890;BME280;10107;51.198;6.824;2022-11-23T07:26:29;-21525.41;;;7.83;100.00
19890;BME280;10107;51.198;6.824;2022-11-23T07:30:31;-21526.06;;;7.85;100.00
19890;BME280;10107;51.198;6.824;2022-11-23T07:34:33;-21533.25;;;8.13;100.00
19890;BME280;10107;51.198;6.824;2022-11-23T07:38:36;-21603.06;;;10.83;89.29
19890;BME280;10107;51.198;6.824;2022-11-23T07:42:38;-21647.63;;;12.56;74.71
19890;BME280;10107;51.198;6.824;2022-11-23T07:46:39;-21605.44;;;10.92;80.31
19890;BME280;10107;51.198;6.824;2022-11-23T07:50:41;-21583.31;;;10.06;85.52
19890;BME280;10107;51.198;6.824;2022-11-23T07:54:45;-21572.31;;;9.64;88.35
19890;BME280;10107;51.198;6.824;2022-11-23T07:58:46;-21564.75;;;9.35;89.05
19890;BME280;10107;51.198;6.824;2022-11-23T08:02:48;-21566.47;;;9.41;88.94
19890;BME280;10107;51.198;6.824;2022-11-23T08:06:50;-21565.81;;;9.39;89.00
19890;BME280;10107;51.198;6.824;2022-11-23T08:10:52;-21571.50;;;9.61;88.22
19890;BME280;10107;51.198;6.824;2022-11-23T08:14:54;-21571.38;;;9.60;86.38
19890;BME280;10107;51.198;6.824;2022-11-23T08:18:55;-21567.28;;;9.44;87.02
19890;BME280;10107;51.198;6.824;2022-11-23T08:22:57;-21568.06;;;9.47;87.68
19890;BME280;10107;51.198;6.824;2022-11-23T08:27:00;-21568.59;;;9.49;86.49
19890;BME280;10107;51.198;6.824;2022-11-23T08:31:04;-21653.44;;;12.78;72.11
19890;BME280;10107;51.198;6.824;2022-11-23T08:35:05;-21727.97;;;15.69;58.53
19890;BME280;10107;51.198;6.824;2022-11-23T08:39:07;-21821.47;;;19.35;46.76
19890;BME280;10107;51.198;6.824;2022-11-23T08:43:11;-21889.03;;;22.01;39.07
19890;BME280;10107;51.198;6.824;2022-11-23T08:47:13;-21935.59;;;23.85;34.98
19890;BME280;10107;51.198;6.824;2022-11-23T08:51:14;-21919.53;;;23.22;34.30
19890;BME280;10107;51.198;6.824;2022-11-23T08:55:21;-21937.94;;;23.95;33.26
19890;BME280;10107;51.198;6.824;2022-11-23T08:59:24;-21937.81;;;23.94;32.72
19890;BME280;10107;51.198;6.824;2022-11-23T09:03:25;-21955.00;;;24.62;31.48
19890;BME280;10107;51.198;6.824;2022-11-23T09:07:27;-21941.69;;;24.09;32.30
19890;BME280;10107;51.198;6.824;2022-11-23T09:11:28;-21920.59;;;23.26;33.04
19890;BME280;10107;51.198;6.824;2022-11-23T09:15:31;-21789.06;;;18.08;42.57
19890;BME280;10107;51.198;6.824;2022-11-23T09:19:33;-21680.19;;;13.82;56.04
19890;BME280;10107;51.198;6.824;2022-11-23T09:23:34;-21621.72;;;11.55;66.14
19890;BME280;10107;51.198;6.824;2022-11-23T09:27:36;-21600.69;;;10.74;72.90
19890;BME280;10107;51.198;6.824;2022-11-23T09:31:39;-21594.59;;;10.50;74.43
19890;BME280;10107;51.198;6.824;2022-11-23T09:35:40;-21588.34;;;10.26;74.21
19890;BME280;10107;51.198;6.824;2022-11-23T09:39:42;-21580.53;;;9.96;75.22
19890;BME280;10107;51.198;6.824;2022-11-23T09:43:45;-21580.25;;;9.95;75.28
19890;BME280;10107;51.198;6.824;2022-11-23T09:47:55;-21577.75;;;9.85;76.40
19890;BME280;10107;51.198;6.824;2022-11-23T09:52:00;-21581.31;;;9.99;75.19
19890;BME280;10107;51.198;6.824;2022-11-23T09:56:01;-21587.69;;;10.23;74.64
19890;BME280;10107;51.198;6.824;2022-11-23T10:00:04;-21587.03;;;10.21;73.18
19890;BME280;10107;51.198;6.824;2022-11-23T10:04:08;-21583.97;;;10.09;73.45
19890;BME280;10107;51.198;6.824;2022-11-23T10:08:12;-21581.84;;;10.01;74.32
19890;BME280;10107;51.198;6.824;2022-11-23T10:12:25;-21580.00;;;9.94;73.80
19890;BME280;10107;51.198;6.824;2022-11-23T10:16:32;-21581.72;;;10.00;74.52
19890;BME280;10107;51.198;6.824;2022-11-23T10:20:46;-21576.69;;;9.81;72.28
19890;BME280;10107;51.198;6.824;2022-11-23T10:24:51;-21585.69;;;10.16;70.94
19890;BME280;10107;51.198;6.824;2022-11-23T10:28:53;-21592.59;;;10.42;71.13
19890;BME280;10107;51.198;6.824;2022-11-23T10:32:56;-21594.19;;;10.48;69.96
19890;BME280;10107;51.198;6.824;2022-11-23T10:37:00;-21587.81;;;10.24;71.08
19890;BME280;10107;51.198;6.824;2022-11-23T10:41:02;-21593.78;;;10.47;69.81
19890;BME280;10107;51.198;6.824;2022-11-23T10:45:05;-21598.69;;;10.66;68.99
19890;BME280;10107;51.198;6.824;2022-11-23T10:49:19;-21609.53;;;11.08;67.22
19890;BME280;10107;51.198;6.824;2022-11-23T10:53:22;-21618.41;;;11.42;65.20
19890;BME280;10107;51.198;6.824;2022-11-23T10:57:29;-21639.97;;;12.26;62.30
19890;BME280;10107;51.198;6.824;2022-11-23T11:01:32;-21674.00;;;13.58;57.01
19890;BME280;10107;51.198;6.824;2022-11-23T11:05:33;-21688.63;;;14.15;54.96
19890;BME280;10107;51.198;6.824;2022-11-23T11:09:38;-21694.81;;;14.39;53.94
19890;BME280;10107;51.198;6.824;2022-11-23T11:13:40;-21702.06;;;14.68;52.83
19890;BME280;10107;51.198;6.824;2022-11-23T11:17:42;-21712.72;;;15.09;52.05
19890;BME280;10107;51.198;6.824;2022-11-23T11:21:43;-21691.91;;;14.28;52.31
19890;BME280;10107;51.198;6.824;2022-11-23T11:25:47;-21676.13;;;13.66;54.16
19890;BME280;10107;51.198;6.824;2022-11-23T11:29:50;-21658.03;;;12.96;56.79
19890;BME280;10107;51.198;6.824;2022-11-23T11:33:52;-21642.88;;;12.37;57.88
19890;BME280;10107;51.198;6.824;2022-11-23T11:37:57;-21630.19;;;11.88;58.88
19890;BME280;10107;51.198;6.824;2022-11-23T11:42:06;-21621.59;;;11.55;59.99
19890;BME280;10107;51.198;6.824;2022-11-23T11:46:12;-21614.03;;;11.25;61.08
19890;BME280;10107;51.198;6.824;2022-11-23T11:50:18;-21608.09;;;11.02;62.65
19890;BME280;10107;51.198;6.824;2022-11-23T11:54:21;-21606.09;;;10.95;63.38
19890;BME280;10107;51.198;6.824;2022-11-23T11:58:27;-21606.75;;;10.97;63.59
19890;BME280;10107;51.198;6.824;2022-11-23T12:02:30;-21597.75;;;10.62;64.07
19890;BME280;10107;51.198;6.824;2022-11-23T12:06:34;-21600.81;;;10.74;64.32
19890;BME280;10107;51.198;6.824;2022-11-23T12:10:40;-21606.63;;;10.97;64.58
19890;BME280;10107;51.198;6.824;2022-11-23T12:14:45;-21608.09;;;11.02;63.20
19890;BME280;10107;51.198;6.824;2022-11-23T12:18:54;-21606.63;;;10.97;63.56
19890;BME280;10107;51.198;6.824;2022-11-23T12:23:03;-21598.03;;;10.63;64.88
19890;BME280;10107;51.198;6.824;2022-11-23T12:27:08;-21598.69;;;10.66;64.58
19890;BME280;10107;51.198;6.824;2022-11-23T12:31:17;-21598.69;;;10.66;65.39
19890;BME280;10107;51.198;6.824;2022-11-23T12:39:50;-21614.03;;;11.25;62.93
19890;BME280;10107;51.198;6.824;2022-11-23T12:44:00;-21608.34;;;11.03;63.95
19890;BME280;10107;51.198;6.824;2022-11-23T12:48:15;-21602.25;;;10.80;63.86
19890;BME280;10107;51.198;6.824;2022-11-23T12:52:28;-21598.94;;;10.67;65.14
19890;BME280;10107;51.198;6.824;2022-11-23T12:56:39;-21592.72;;;10.43;67.22
19890;BME280;10107;51.198;6.824;2022-11-23T13:00:47;-21589.41;;;10.30;66.59
19890;BME280;10107;51.198;6.824;2022-11-23T13:04:59;-21584.63;;;10.11;68.44
19890;BME280;10107;51.198;6.824;2022-11-23T13:09:12;-21583.97;;;10.09;68.86
19890;BME280;10107;51.198;6.824;2022-11-23T13:13:25;-21581.47;;;9.99;69.05
19890;BME280;10107;51.198;6.824;2022-11-23T13:17:31;-21582.38;;;10.03;68.23
19890;BME280;10107;51.198;6.824;2022-11-23T13:21:39;-21584.91;;;10.13;68.87
19890;BME280;10107;51.198;6.824;2022-11-23T13:25:41;-21580.53;;;9.96;67.92
19890;BME280;10107;51.198;6.824;2022-11-23T13:29:52;-21578.94;;;9.89;67.75
19890;BME280;10107;51.198;6.824;2022-11-23T13:33:57;-21577.09;;;9.82;68.89
19890;BME280;10107;51.198;6.824;2022-11-23T13:38:21;-21576.41;;;9.80;69.86
19890;BME280;10107;51.198;6.824;2022-11-23T13:42:24;-21574.81;;;9.74;69.85
19890;BME280;10107;51.198;6.824;2022-11-23T13:46:26;-21572.03;;;9.63;70.23
19890;BME280;10107;51.198;6.824;2022-11-23T13:50:28;-21568.72;;;9.50;70.64
19890;BME280;10107;51.198;6.824;2022-11-23T13:54:31;-21567.13;;;9.44;71.11
19890;BME280;10107;51.198;6.824;2022-11-23T13:58:37;-21566.34;;;9.41;71.73
19890;BME280;10107;51.198;6.824;2022-11-23T14:02:39;-21566.34;;;9.41;72.13
19890;BME280;10107;51.198;6.824;2022-11-23T14:06:42;-21565.41;;;9.37;71.29
19890;BME280;10107;51.198;6.824;2022-11-23T14:10:47;-21564.59;;;9.34;72.07
19890;BME280;10107;51.198;6.824;2022-11-23T14:14:51;-21563.03;;;9.28;72.84
19890;BME280;10107;51.198;6.824;2022-11-23T14:19:00;-21561.16;;;9.21;73.33
19890;BME280;10107;51.198;6.824;2022-11-23T14:23:14;-21559.44;;;9.14;73.65
19890;BME280;10107;51.198;6.824;2022-11-23T14:27:26;-21558.50;;;9.10;73.64
19890;BME280;10107;51.198;6.824;2022-11-23T14:31:34;-21558.38;;;9.10;74.01
19890;BME280;10107;51.198;6.824;2022-11-23T14:35:42;-21558.78;;;9.11;74.21
19890;BME280;10107;51.198;6.824;2022-11-23T14:39:50;-21559.03;;;9.12;73.88
19890;BME280;10107;51.198;6.824;2022-11-23T14:43:56;-21560.63;;;9.19;73.31
19890;BME280;10107;51.198;6.824;2022-11-23T14:48:11;-21562.34;;;9.25;73.53
19890;BME280;10107;51.198;6.824;2022-11-23T14:52:20;-21563.81;;;9.31;73.04
19890;BME280;10107;51.198;6.824;2022-11-23T14:56:26;-21564.75;;;9.35;73.49
19890;BME280;10107;51.198;6.824;2022-11-23T15:00:34;-21564.47;;;9.34;74.75
19890;BME280;10107;51.198;6.824;2022-11-23T15:04:38;-21563.41;;;9.29;76.04
19890;BME280;10107;51.198;6.824;2022-11-23T15:08:43;-21562.34;;;9.25;74.87
19890;BME280;10107;51.198;6.824;2022-11-23T15:12:46;-21561.03;;;9.20;77.56
19890;BME280;10107;51.198;6.824;2022-11-23T15:16:49;-21556.25;;;9.02;83.01
19890;BME280;10107;51.198;6.824;2022-11-23T15:20:51;-21550.13;;;8.78;85.48
19890;BME280;10107;51.198;6.824;2022-11-23T15:24:52;-21546.41;;;8.64;88.17
19890;BME280;10107;51.198;6.824;2022-11-23T15:28:54;-21543.91;;;8.54;89.51
19890;BME280;10107;51.198;6.824;2022-11-23T15:32:57;-21541.63;;;8.45;90.65
19890;BME280;10107;51.198;6.824;2022-11-23T15:36:59;-21539.25;;;8.36;95.40
19890;BME280;10107;51.198;6.824;2022-11-23T15:41:01;-21534.59;;;8.18;97.00
19890;BME280;10107;51.198;6.824;2022-11-23T15:45:04;-21531.00;;;8.04;98.98
19890;BME280;10107;51.198;6.824;2022-11-23T15:49:12;-21527.81;;;7.92;100.00
19890;BME280;10107;51.198;6.824;2022-11-23T15:53:14;-21524.34;;;7.79;100.00
19890;BME280;10107;51.198;6.824;2022-11-23T15:57:16;-21523.69;;;7.76;100.00
19890;BME280;10107;51.198;6.824;2022-11-23T16:01:19;-21521.81;;;7.69;100.00
19890;BME280;10107;51.198;6.824;2022-11-23T16:05:22;-21519.81;;;7.61;100.00
19890;BME280;10107;51.198;6.824;2022-11-23T16:09:35;-21518.22;;;7.55;100.00
19890;BME280;10107;51.198;6.824;2022-11-23T16:13:37;-21516.09;;;7.47;100.00
19890;BME280;10107;51.198;6.824;2022-11-23T16:17:39;-21514.91;;;7.42;100.00
19890;BME280;10107;51.198;6.824;2022-11-23T16:21:45;-21513.97;;;7.39;100.00
19890;BME280;10107;51.198;6.824;2022-11-23T16:25:51;-21513.44;;;7.37;100.00
19890;BME280;10107;51.198;6.824;2022-11-23T16:29:53;-21512.78;;;7.34;100.00
19890;BME280;10107;51.198;6.824;2022-11-23T16:33:55;-21512.09;;;7.31;100.00
19890;BME280;10107;51.198;6.824;2022-11-23T16:37:58;-21511.72;;;7.30;100.00
19890;BME280;10107;51.198;6.824;2022-11-23T16:41:59;-21511.84;;;7.30;100.00
19890;BME280;10107;51.198;6.824;2022-11-23T16:46:01;-21510.78;;;7.26;100.00
19890;BME280;10107;51.198;6.824;2022-11-23T16:50:02;-21510.25;;;7.24;100.00
19890;BME280;10107;51.198;6.824;2022-11-23T16:54:05;-21509.97;;;7.23;100.00
19890;BME280;10107;51.198;6.824;2022-11-23T16:58:07;-21509.97;;;7.23;100.00
19890;BME280;10107;51.198;6.824;2022-11-23T17:02:09;-21509.03;;;7.20;100.00
19890;BME280;10107;51.198;6.824;2022-11-23T17:06:12;-21508.66;;;7.18;100.00
19890;BME280;10107;51.198;6.824;2022-11-23T17:10:16;-21507.97;;;7.16;100.00
19890;BME280;10107;51.198;6.824;2022-11-23T17:14:17;-21507.56;;;7.14;100.00
19890;BME280;10107;51.198;6.824;2022-11-23T17:18:19;-21506.78;;;7.11;100.00
19890;BME280;10107;51.198;6.824;2022-11-23T17:22:21;-21506.50;;;7.10;100.00
19890;BME280;10107;51.198;6.824;2022-11-23T17:26:29;-21506.13;;;7.08;100.00
19890;BME280;10107;51.198;6.824;2022-11-23T17:30:31;-21506.13;;;7.08;100.00
19890;BME280;10107;51.198;6.824;2022-11-23T17:34:33;-21505.59;;;7.06;100.00
19890;BME280;10107;51.198;6.824;2022-11-23T17:38:35;-21505.03;;;7.04;100.00
19890;BME280;10107;51.198;6.824;2022-11-23T17:42:39;-21503.97;;;7.00;100.00
19890;BME280;10107;51.198;6.824;2022-11-23T17:46:40;-21503.44;;;6.98;100.00
19890;BME280;10107;51.198;6.824;2022-11-23T17:50:42;-21502.38;;;6.94;100.00
19890;BME280;10107;51.198;6.824;2022-11-23T17:54:43;-21501.72;;;6.91;100.00
19890;BME280;10107;51.198;6.824;2022-11-23T17:58:46;-21500.91;;;6.88;100.00
19890;BME280;10107;51.198;6.824;2022-11-23T18:02:48;-21500.38;;;6.86;100.00
19890;BME280;10107;51.198;6.824;2022-11-23T18:06:51;-21499.47;;;6.83;100.00
19890;BME280;10107;51.198;6.824;2022-11-23T18:10:52;-21498.91;;;6.81;100.00
19890;BME280;10107;51.198;6.824;2022-11-23T18:14:55;-21498.91;;;6.81;100.00
19890;BME280;10107;51.198;6.824;2022-11-23T18:18:57;-21499.72;;;6.84;100.00
19890;BME280;10107;51.198;6.824;2022-11-23T18:22:58;-21500.13;;;6.85;100.00
19890;BME280;10107;51.198;6.824;2022-11-23T18:27:00;-21500.91;;;6.88;100.00
19890;BME280;10107;51.198;6.824;2022-11-23T18:31:03;-21500.00;;;6.85;100.00
19890;BME280;10107;51.198;6.824;2022-11-23T18:35:05;-21500.66;;;6.87;100.00
19890;BME280;10107;51.198;6.824;2022-11-23T18:39:07;-21500.91;;;6.88;100.00
19890;BME280;10107;51.198;6.824;2022-11-23T18:43:08;-21501.84;;;6.92;100.00
19890;BME280;10107;51.198;6.824;2022-11-23T18:47:11;-21502.78;;;6.96;100.00
19890;BME280;10107;51.198;6.824;2022-11-23T18:51:12;-21503.72;;;6.99;100.00
19890;BME280;10107;51.198;6.824;2022-11-23T18:55:15;-21503.97;;;7.00;100.00
19890;BME280;10107;51.198;6.824;2022-11-23T18:59:16;-21504.78;;;7.03;100.00
19890;BME280;10107;51.198;6.824;2022-11-23T19:03:21;-21505.03;;;7.04;100.00
19890;BME280;10107;51.198;6.824;2022-11-23T19:07:22;-21506.25;;;7.09;100.00
19890;BME280;10107;51.198;6.824;2022-11-23T19:11:24;-21506.66;;;7.10;100.00
19890;BME280;10107;51.198;6.824;2022-11-23T19:15:26;-21506.25;;;7.09;100.00
19890;BME280;10107;51.198;6.824;2022-11-23T19:19:29;-21507.03;;;7.12;100.00
19890;BME280;10107;51.198;6.824;2022-11-23T19:23:34;-21507.56;;;7.14;100.00
19890;BME280;10107;51.198;6.824;2022-11-23T19:27:35;-21507.72;;;7.14;100.00
19890;BME280;10107;51.198;6.824;2022-11-23T19:31:37;-21508.25;;;7.17;100.00
19890;BME280;10107;51.198;6.824;2022-11-23T19:35:40;-21506.66;;;7.10;100.00
19890;BME280;10107;51.198;6.824;2022-11-23T19:39:42;-21503.31;;;6.98;100.00
19890;BME280;10107;51.198;6.824;2022-11-23T19:43:43;-21499.84;;;6.84;100.00
19890;BME280;10107;51.198;6.824;2022-11-23T19:47:45;-21496.78;;;6.72;100.00
19890;BME280;10107;51.198;6.824;2022-11-23T19:51:48;-21493.72;;;6.61;100.00
19890;BME280;10107;51.198;6.824;2022-11-23T19:55:51;-21491.59;;;6.52;100.00
19890;BME280;10107;51.198;6.824;2022-11-23T19:59:53;-21489.06;;;6.43;100.00
19890;BME280;10107;51.198;6.824;2022-11-23T20:03:55;-21487.31;;;6.36;100.00
19890;BME280;10107;51.198;6.824;2022-11-23T20:07:58;-21486.13;;;6.31;100.00
19890;BME280;10107;51.198;6.824;2022-11-23T20:12:01;-21485.06;;;6.27;100.00
19890;BME280;10107;51.198;6.824;2022-11-23T20:16:02;-21484.66;;;6.26;100.00
19890;BME280;10107;51.198;6.824;2022-11-23T20:20:05;-21483.59;;;6.22;100.00
19890;BME280;10107;51.198;6.824;2022-11-23T20:24:09;-21483.19;;;6.20;100.00
19890;BME280;10107;51.198;6.824;2022-11-23T20:28:11;-21483.19;;;6.20;100.00
19890;BME280;10107;51.198;6.824;2022-11-23T20:32:13;-21482.25;;;6.17;100.00
19890;BME280;10107;51.198;6.824;2022-11-23T20:36:15;-21480.94;;;6.11;100.00
19890;BME280;10107;51.198;6.824;2022-11-23T20:40:19;-21481.19;;;6.12;100.00
19890;BME280;10107;51.198;6.824;2022-11-23T20:44:20;-21480.38;;;6.09;100.00
19890;BME280;10107;51.198;6.824;2022-11-23T20:48:22;-21479.19;;;6.05;100.00
19890;BME280;10107;51.198;6.824;2022-11-23T20:52:24;-21478.25;;;6.01;100.00
19890;BME280;10107;51.198;6.824;2022-11-23T20:56:27;-21478.38;;;6.02;100.00
19890;BME280;10107;51.198;6.824;2022-11-23T21:00:29;-21478.25;;;6.01;100.00
19890;BME280;10107;51.198;6.824;2022-11-23T21:04:31;-21477.72;;;5.99;100.00
19890;BME280;10107;51.198;6.824;2022-11-23T21:08:32;-21477.84;;;6.00;100.00
19890;BME280;10107;51.198;6.824;2022-11-23T21:12:36;-21478.38;;;6.02;100.00
19890;BME280;10107;51.198;6.824;2022-11-23T21:16:55;-21477.72;;;5.99;100.00
19890;BME280;10107;51.198;6.824;2022-11-23T21:20:57;-21476.38;;;5.94;100.00
19890;BME280;10107;51.198;6.824;2022-11-23T21:24:59;-21475.06;;;5.89;100.00